Bishopton, United Kingdom

11:06 AM GMT on February 28, 2017 (GMT +0000)
Glasgow | | Change Station

Elev 26 ft 55.87 °N, 4.43 °W | Updated 16 minutes ago

Light Rain
Light Rain Drizzle
37 °F
Feels Like 32 °F
N
7
Wind Variable Wind from ENE

Today
High -- | Low -- °F
--% Chance of Precip.
Yesterday
High -- | Low -- °F
Precip. -- in
Pressure 29.00 in
Visibility 3.1 miles
Clouds Overcast 1100 ft
Windchill 32 °F
Dew Point 36 °F
Humidity 93%
Rainfall 0.00 in
Snow Depth Not available.
7:11 AM 5:50 PM
Waxing Crescent, 4% visible
METAR EGPF 281050Z AUTO 06006KT 5000 -RADZ OVC011 03/02 Q0982
Pressure 29.00 in
Visibility 3.1 miles
Clouds Overcast 1100 ft
Windchill 32 °F
Dew Point 36 °F
Humidity 93%
Rainfall 0.00 in
Snow Depth Not available.
7:11 AM 5:50 PM
Waxing Crescent, 4% visible
METAR EGPF 281050Z AUTO 06006KT 5000 -RADZ OVC011 03/02 Q0982

Get Your Daily Forecast Email!

Thanks for signing up!

Be on the lookout for a verification email in your inbox.

You'll start receiving the daily forecast at 8 AM.

×

10-Day Weather Forecast

×

Almanac

Astronomy

Feb. 28, 2017 Rise Set
Actual Time
Civil Twilight
Nautical Twilight
Astronomical Twilight
Moon
Length of Visible Light
Length of Day
Tomorrow will be .
, % of the Moon is Illuminated

Today's Extremes

Country Highs Country Lows

Community

WunderPhotos

Upload Photos

1,962,540 photos uploaded!

WunderBlog® & News

Nearby

Air Quality

  Air Quality AQ Index Pollutant
Not available.

Snow Depth

Station Depth Elevation

Earthquake Activity

City Distance Mag. Time & Date
Minimum magnitude displayed is 2.5.

Coastal Water Temperatures

Place Temperature

Stations

Nearby Weather Stations

Station Location Temp. Windchill Dew Point Humidity Wind Precip. Elev Updated Type